sensor_id;sensor_type;location;lat;lon;timestamp;P1;durP1;ratioP1;P2;durP2;ratioP2
43793;SDS011;29414;44.798;20.366;2022-12-29T00:02:08;30.48;;;18.63;;
43793;SDS011;29414;44.798;20.366;2022-12-29T00:06:09;33.93;;;22.77;;
43793;SDS011;29414;44.798;20.366;2022-12-29T00:10:09;39.17;;;24.60;;
43793;SDS011;29414;44.798;20.366;2022-12-29T00:14:09;36.22;;;23.13;;
43793;SDS011;29414;44.798;20.366;2022-12-29T00:18:30;34.90;;;23.93;;
43793;SDS011;29414;44.798;20.366;2022-12-29T00:22:30;39.80;;;24.73;;
43793;SDS011;29414;44.798;20.366;2022-12-29T00:26:53;30.97;;;21.00;;
43793;SDS011;29414;44.798;20.366;2022-12-29T00:31:13;28.47;;;20.70;;
43793;SDS011;29414;44.798;20.366;2022-12-29T00:35:33;29.53;;;20.03;;
43793;SDS011;29414;44.798;20.366;2022-12-29T00:39:35;30.90;;;21.10;;
43793;SDS011;29414;44.798;20.366;2022-12-29T00:43:53;34.60;;;23.30;;
43793;SDS011;29414;44.798;20.366;2022-12-29T00:48:06;30.57;;;22.17;;
43793;SDS011;29414;44.798;20.366;2022-12-29T00:52:07;33.05;;;22.40;;
43793;SDS011;29414;44.798;20.366;2022-12-29T00:56:07;30.87;;;22.10;;
43793;SDS011;29414;44.798;20.366;2022-12-29T01:00:08;28.90;;;20.63;;
43793;SDS011;29414;44.798;20.366;2022-12-29T01:04:08;35.93;;;24.37;;
43793;SDS011;29414;44.798;20.366;2022-12-29T01:08:08;37.27;;;24.80;;
43793;SDS011;29414;44.798;20.366;2022-12-29T01:12:09;37.78;;;26.20;;
43793;SDS011;29414;44.798;20.366;2022-12-29T01:16:09;34.90;;;25.60;;
43793;SDS011;29414;44.798;20.366;2022-12-29T01:20:09;38.70;;;25.17;;
43793;SDS011;29414;44.798;20.366;2022-12-29T01:24:10;36.80;;;25.13;;
43793;SDS011;29414;44.798;20.366;2022-12-29T01:28:10;35.60;;;24.73;;
43793;SDS011;29414;44.798;20.366;2022-12-29T01:32:11;40.47;;;26.88;;
43793;SDS011;29414;44.798;20.366;2022-12-29T01:36:12;39.60;;;28.83;;
43793;SDS011;29414;44.798;20.366;2022-12-29T01:40:12;52.23;;;33.93;;
43793;SDS011;29414;44.798;20.366;2022-12-29T01:44:39;58.80;;;34.40;;
43793;SDS011;29414;44.798;20.366;2022-12-29T01:48:36;52.70;;;35.17;;
43793;SDS011;29414;44.798;20.366;2022-12-29T01:52:37;48.65;;;34.58;;
43793;SDS011;29414;44.798;20.366;2022-12-29T01:56:40;46.97;;;32.23;;
43793;SDS011;29414;44.798;20.366;2022-12-29T02:00:41;37.07;;;27.37;;
43793;SDS011;29414;44.798;20.366;2022-12-29T02:04:41;40.60;;;28.33;;
43793;SDS011;29414;44.798;20.366;2022-12-29T02:08:46;47.30;;;32.43;;
43793;SDS011;29414;44.798;20.366;2022-12-29T02:12:46;42.73;;;31.10;;
43793;SDS011;29414;44.798;20.366;2022-12-29T02:37:18;35.95;;;24.60;;
43793;SDS011;29414;44.798;20.366;2022-12-29T02:41:27;36.63;;;27.13;;
43793;SDS011;29414;44.798;20.366;2022-12-29T02:45:31;35.00;;;24.67;;
43793;SDS011;29414;44.798;20.366;2022-12-29T02:53:33;32.22;;;24.70;;
43793;SDS011;29414;44.798;20.366;2022-12-29T03:03:13;33.60;;;24.60;;
43793;SDS011;29414;44.798;20.366;2022-12-29T03:11:03;35.23;;;25.80;;
43793;SDS011;29414;44.798;20.366;2022-12-29T03:15:07;34.23;;;27.57;;
43793;SDS011;29414;44.798;20.366;2022-12-29T03:19:36;37.90;;;26.83;;
43793;SDS011;29414;44.798;20.366;2022-12-29T03:23:37;38.37;;;27.47;;
43793;SDS011;29414;44.798;20.366;2022-12-29T03:27:39;38.70;;;28.07;;
43793;SDS011;29414;44.798;20.366;2022-12-29T03:31:41;34.80;;;26.20;;
43793;SDS011;29414;44.798;20.366;2022-12-29T03:35:42;38.67;;;27.33;;
43793;SDS011;29414;44.798;20.366;2022-12-29T03:39:43;39.67;;;28.20;;
43793;SDS011;29414;44.798;20.366;2022-12-29T03:43:44;37.60;;;27.30;;
43793;SDS011;29414;44.798;20.366;2022-12-29T03:47:45;37.63;;;27.17;;
43793;SDS011;29414;44.798;20.366;2022-12-29T03:51:45;39.83;;;28.00;;
43793;SDS011;29414;44.798;20.366;2022-12-29T03:55:45;36.55;;;27.23;;
43793;SDS011;29414;44.798;20.366;2022-12-29T03:59:45;35.78;;;25.77;;
43793;SDS011;29414;44.798;20.366;2022-12-29T04:03:45;33.83;;;26.13;;
43793;SDS011;29414;44.798;20.366;2022-12-29T04:07:46;31.83;;;23.77;;
43793;SDS011;29414;44.798;20.366;2022-12-29T04:11:46;35.63;;;25.47;;
43793;SDS011;29414;44.798;20.366;2022-12-29T04:15:46;34.40;;;24.88;;
43793;SDS011;29414;44.798;20.366;2022-12-29T04:19:47;34.70;;;25.23;;
43793;SDS011;29414;44.798;20.366;2022-12-29T04:23:47;32.50;;;23.65;;
43793;SDS011;29414;44.798;20.366;2022-12-29T04:27:47;35.80;;;24.87;;
43793;SDS011;29414;44.798;20.366;2022-12-29T04:31:47;38.95;;;26.38;;
43793;SDS011;29414;44.798;20.366;2022-12-29T04:35:47;35.47;;;25.33;;
43793;SDS011;29414;44.798;20.366;2022-12-29T04:39:48;35.30;;;25.13;;
43793;SDS011;29414;44.798;20.366;2022-12-29T04:43:48;36.72;;;25.98;;
43793;SDS011;29414;44.798;20.366;2022-12-29T04:47:48;34.28;;;25.30;;
43793;SDS011;29414;44.798;20.366;2022-12-29T04:51:48;35.70;;;25.77;;
43793;SDS011;29414;44.798;20.366;2022-12-29T04:55:52;34.13;;;25.00;;
43793;SDS011;29414;44.798;20.366;2022-12-29T04:59:52;31.77;;;23.17;;
43793;SDS011;29414;44.798;20.366;2022-12-29T05:03:53;33.78;;;26.33;;
43793;SDS011;29414;44.798;20.366;2022-12-29T05:07:53;37.58;;;28.33;;
43793;SDS011;29414;44.798;20.366;2022-12-29T05:11:53;34.10;;;25.80;;
43793;SDS011;29414;44.798;20.366;2022-12-29T05:15:53;32.53;;;24.83;;
43793;SDS011;29414;44.798;20.366;2022-12-29T05:19:54;38.07;;;26.20;;
43793;SDS011;29414;44.798;20.366;2022-12-29T05:23:54;37.40;;;27.67;;
43793;SDS011;29414;44.798;20.366;2022-12-29T05:27:54;36.20;;;25.73;;
43793;SDS011;29414;44.798;20.366;2022-12-29T05:31:55;33.25;;;25.83;;
43793;SDS011;29414;44.798;20.366;2022-12-29T05:35:55;33.70;;;24.92;;
43793;SDS011;29414;44.798;20.366;2022-12-29T05:39:55;33.40;;;26.45;;
43793;SDS011;29414;44.798;20.366;2022-12-29T05:43:55;30.42;;;25.00;;
43793;SDS011;29414;44.798;20.366;2022-12-29T05:47:55;33.25;;;24.38;;
43793;SDS011;29414;44.798;20.366;2022-12-29T05:56:33;29.65;;;24.02;;
43793;SDS011;29414;44.798;20.366;2022-12-29T06:00:33;37.08;;;26.17;;
43793;SDS011;29414;44.798;20.366;2022-12-29T06:04:33;39.95;;;30.50;;
43793;SDS011;29414;44.798;20.366;2022-12-29T06:08:34;41.30;;;29.80;;
43793;SDS011;29414;44.798;20.366;2022-12-29T06:12:34;44.80;;;31.13;;
43793;SDS011;29414;44.798;20.366;2022-12-29T06:16:34;43.97;;;32.80;;
43793;SDS011;29414;44.798;20.366;2022-12-29T06:20:34;37.33;;;29.03;;
43793;SDS011;29414;44.798;20.366;2022-12-29T06:24:35;38.27;;;30.07;;
43793;SDS011;29414;44.798;20.366;2022-12-29T06:28:35;43.40;;;30.53;;
43793;SDS011;29414;44.798;20.366;2022-12-29T06:32:35;42.87;;;30.67;;
43793;SDS011;29414;44.798;20.366;2022-12-29T06:36:35;36.08;;;30.08;;
43793;SDS011;29414;44.798;20.366;2022-12-29T06:40:36;40.28;;;29.75;;
43793;SDS011;29414;44.798;20.366;2022-12-29T06:44:36;46.45;;;33.28;;
43793;SDS011;29414;44.798;20.366;2022-12-29T06:48:36;44.28;;;33.08;;
43793;SDS011;29414;44.798;20.366;2022-12-29T06:52:36;50.58;;;38.67;;
43793;SDS011;29414;44.798;20.366;2022-12-29T06:56:37;34.40;;;27.00;;
43793;SDS011;29414;44.798;20.366;2022-12-29T07:00:37;55.60;;;38.97;;
43793;SDS011;29414;44.798;20.366;2022-12-29T07:04:38;43.03;;;31.30;;
43793;SDS011;29414;44.798;20.366;2022-12-29T07:08:41;52.43;;;39.60;;
43793;SDS011;29414;44.798;20.366;2022-12-29T07:12:41;55.20;;;44.03;;
43793;SDS011;29414;44.798;20.366;2022-12-29T07:16:41;66.70;;;49.27;;
43793;SDS011;29414;44.798;20.366;2022-12-29T07:20:41;60.23;;;45.27;;
43793;SDS011;29414;44.798;20.366;2022-12-29T07:24:42;63.75;;;49.22;;
43793;SDS011;29414;44.798;20.366;2022-12-29T07:28:43;65.37;;;48.97;;
43793;SDS011;29414;44.798;20.366;2022-12-29T07:32:43;61.07;;;43.50;;
43793;SDS011;29414;44.798;20.366;2022-12-29T07:36:43;67.20;;;47.20;;
43793;SDS011;29414;44.798;20.366;2022-12-29T07:40:47;44.80;;;34.33;;
43793;SDS011;29414;44.798;20.366;2022-12-29T07:44:47;52.07;;;38.57;;
43793;SDS011;29414;44.798;20.366;2022-12-29T07:48:47;56.00;;;39.47;;
43793;SDS011;29414;44.798;20.366;2022-12-29T07:52:47;59.50;;;40.37;;
43793;SDS011;29414;44.798;20.366;2022-12-29T07:56:48;52.93;;;39.57;;
43793;SDS011;29414;44.798;20.366;2022-12-29T08:00:52;52.40;;;33.83;;
43793;SDS011;29414;44.798;20.366;2022-12-29T08:04:52;84.43;;;48.77;;
43793;SDS011;29414;44.798;20.366;2022-12-29T08:08:52;48.45;;;35.95;;
43793;SDS011;29414;44.798;20.366;2022-12-29T08:12:53;45.92;;;33.75;;
43793;SDS011;29414;44.798;20.366;2022-12-29T08:16:53;47.92;;;34.15;;
43793;SDS011;29414;44.798;20.366;2022-12-29T08:20:53;50.87;;;36.43;;
43793;SDS011;29414;44.798;20.366;2022-12-29T08:24:53;45.10;;;35.63;;
43793;SDS011;29414;44.798;20.366;2022-12-29T08:28:54;44.85;;;34.33;;
43793;SDS011;29414;44.798;20.366;2022-12-29T08:32:58;51.90;;;37.97;;
43793;SDS011;29414;44.798;20.366;2022-12-29T08:37:01;60.28;;;43.05;;
43793;SDS011;29414;44.798;20.366;2022-12-29T08:41:04;56.37;;;42.70;;
43793;SDS011;29414;44.798;20.366;2022-12-29T08:45:05;47.13;;;35.17;;
43793;SDS011;29414;44.798;20.366;2022-12-29T08:49:05;133.90;;;45.40;;
43793;SDS011;29414;44.798;20.366;2022-12-29T08:53:05;72.04;;;37.26;;
43793;SDS011;29414;44.798;20.366;2022-12-29T08:57:06;84.95;;;38.72;;
43793;SDS011;29414;44.798;20.366;2022-12-29T09:01:06;68.25;;;36.05;;
43793;SDS011;29414;44.798;20.366;2022-12-29T09:05:07;41.35;;;29.00;;
43793;SDS011;29414;44.798;20.366;2022-12-29T09:09:07;40.28;;;30.27;;
43793;SDS011;29414;44.798;20.366;2022-12-29T09:13:07;37.35;;;29.48;;
43793;SDS011;29414;44.798;20.366;2022-12-29T09:17:08;35.42;;;25.45;;
43793;SDS011;29414;44.798;20.366;2022-12-29T09:21:27;33.75;;;24.60;;
43793;SDS011;29414;44.798;20.366;2022-12-29T09:25:27;24.18;;;20.28;;
43793;SDS011;29414;44.798;20.366;2022-12-29T09:29:28;29.08;;;20.60;;
43793;SDS011;29414;44.798;20.366;2022-12-29T09:33:28;33.70;;;24.12;;
43793;SDS011;29414;44.798;20.366;2022-12-29T09:37:28;41.60;;;29.70;;
43793;SDS011;29414;44.798;20.366;2022-12-29T09:55:12;26.83;;;22.20;;
43793;SDS011;29414;44.798;20.366;2022-12-29T10:03:02;29.45;;;22.02;;
43793;SDS011;29414;44.798;20.366;2022-12-29T10:07:10;24.27;;;20.08;;
43793;SDS011;29414;44.798;20.366;2022-12-29T10:15:40;30.45;;;20.27;;
43793;SDS011;29414;44.798;20.366;2022-12-29T10:23:50;31.30;;;22.52;;
43793;SDS011;29414;44.798;20.366;2022-12-29T10:27:51;30.10;;;22.17;;
43793;SDS011;29414;44.798;20.366;2022-12-29T10:35:57;27.77;;;20.45;;
43793;SDS011;29414;44.798;20.366;2022-12-29T10:39:58;25.75;;;18.75;;
43793;SDS011;29414;44.798;20.366;2022-12-29T10:43:59;29.45;;;20.52;;
43793;SDS011;29414;44.798;20.366;2022-12-29T10:48:09;31.45;;;24.27;;
43793;SDS011;29414;44.798;20.366;2022-12-29T10:52:11;30.73;;;22.95;;
43793;SDS011;29414;44.798;20.366;2022-12-29T10:56:20;29.00;;;18.52;;
43793;SDS011;29414;44.798;20.366;2022-12-29T11:00:22;23.35;;;17.35;;
43793;SDS011;29414;44.798;20.366;2022-12-29T11:04:25;27.13;;;16.90;;
43793;SDS011;29414;44.798;20.366;2022-12-29T11:08:30;21.80;;;15.98;;
43793;SDS011;29414;44.798;20.366;2022-12-29T11:12:31;16.02;;;12.07;;
43793;SDS011;29414;44.798;20.366;2022-12-29T11:16:32;21.08;;;13.50;;
43793;SDS011;29414;44.798;20.366;2022-12-29T11:20:35;26.27;;;13.90;;
43793;SDS011;29414;44.798;20.366;2022-12-29T11:24:37;11.98;;;9.40;;
43793;SDS011;29414;44.798;20.366;2022-12-29T11:28:44;3.08;;;2.67;;
43793;SDS011;29414;44.798;20.366;2022-12-29T11:32:50;3.35;;;3.00;;
43793;SDS011;29414;44.798;20.366;2022-12-29T11:36:51;3.65;;;2.60;;
43793;SDS011;29414;44.798;20.366;2022-12-29T11:40:51;4.78;;;3.30;;
43793;SDS011;29414;44.798;20.366;2022-12-29T11:44:51;4.75;;;2.90;;
43793;SDS011;29414;44.798;20.366;2022-12-29T11:48:52;4.45;;;2.33;;
43793;SDS011;29414;44.798;20.366;2022-12-29T11:57:19;4.13;;;2.67;;
43793;SDS011;29414;44.798;20.366;2022-12-29T12:01:27;5.05;;;2.30;;
43793;SDS011;29414;44.798;20.366;2022-12-29T12:05:33;8.23;;;4.03;;
43793;SDS011;29414;44.798;20.366;2022-12-29T12:09:36;4.68;;;2.80;;
43793;SDS011;29414;44.798;20.366;2022-12-29T12:13:43;7.13;;;3.35;;
43793;SDS011;29414;44.798;20.366;2022-12-29T12:17:52;9.98;;;3.80;;
43793;SDS011;29414;44.798;20.366;2022-12-29T12:21:58;4.90;;;3.17;;
43793;SDS011;29414;44.798;20.366;2022-12-29T12:30:17;4.88;;;3.03;;
43793;SDS011;29414;44.798;20.366;2022-12-29T12:34:39;10.05;;;3.60;;
43793;SDS011;29414;44.798;20.366;2022-12-29T12:38:42;7.32;;;4.50;;
43793;SDS011;29414;44.798;20.366;2022-12-29T12:43:04;4.45;;;3.25;;
43793;SDS011;29414;44.798;20.366;2022-12-29T12:47:18;16.33;;;4.35;;
43793;SDS011;29414;44.798;20.366;2022-12-29T13:24:14;9.22;;;5.26;;
43793;SDS011;29414;44.798;20.366;2022-12-29T13:32:59;11.88;;;5.68;;
43793;SDS011;29414;44.798;20.366;2022-12-29T13:36:52;10.93;;;6.57;;
43793;SDS011;29414;44.798;20.366;2022-12-29T13:40:55;8.65;;;5.10;;
43793;SDS011;29414;44.798;20.366;2022-12-29T13:48:59;9.38;;;4.38;;
43793;SDS011;29414;44.798;20.366;2022-12-29T13:57:07;10.25;;;6.60;;
43793;SDS011;29414;44.798;20.366;2022-12-29T14:13:39;6.47;;;3.92;;
43793;SDS011;29414;44.798;20.366;2022-12-29T14:17:40;8.95;;;3.60;;
43793;SDS011;29414;44.798;20.366;2022-12-29T14:21:40;6.48;;;3.84;;
43793;SDS011;29414;44.798;20.366;2022-12-29T14:25:59;8.05;;;4.78;;
43793;SDS011;29414;44.798;20.366;2022-12-29T14:30:00;8.18;;;4.68;;
43793;SDS011;29414;44.798;20.366;2022-12-29T14:38:27;11.07;;;6.80;;
43793;SDS011;29414;44.798;20.366;2022-12-29T14:42:48;8.27;;;5.10;;
43793;SDS011;29414;44.798;20.366;2022-12-29T14:46:54;6.72;;;5.40;;
43793;SDS011;29414;44.798;20.366;2022-12-29T14:50:58;9.35;;;5.90;;
43793;SDS011;29414;44.798;20.366;2022-12-29T14:59:17;12.18;;;7.47;;
43793;SDS011;29414;44.798;20.366;2022-12-29T15:03:19;11.13;;;5.25;;
43793;SDS011;29414;44.798;20.366;2022-12-29T15:07:20;8.20;;;4.72;;
43793;SDS011;29414;44.798;20.366;2022-12-29T15:11:21;8.27;;;4.88;;
43793;SDS011;29414;44.798;20.366;2022-12-29T15:15:24;10.18;;;4.88;;
43793;SDS011;29414;44.798;20.366;2022-12-29T15:19:25;9.27;;;4.63;;
43793;SDS011;29414;44.798;20.366;2022-12-29T15:23:25;11.35;;;6.18;;
43793;SDS011;29414;44.798;20.366;2022-12-29T15:27:26;11.85;;;6.60;;
43793;SDS011;29414;44.798;20.366;2022-12-29T15:31:26;11.77;;;7.18;;
43793;SDS011;29414;44.798;20.366;2022-12-29T15:39:30;9.85;;;5.85;;
43793;SDS011;29414;44.798;20.366;2022-12-29T15:43:37;8.10;;;5.38;;
43793;SDS011;29414;44.798;20.366;2022-12-29T15:47:42;10.00;;;6.25;;
43793;SDS011;29414;44.798;20.366;2022-12-29T15:51:43;14.68;;;8.02;;
43793;SDS011;29414;44.798;20.366;2022-12-29T15:55:44;19.58;;;9.07;;
43793;SDS011;29414;44.798;20.366;2022-12-29T15:59:47;20.70;;;11.13;;
43793;SDS011;29414;44.798;20.366;2022-12-29T16:03:48;17.73;;;10.83;;
43793;SDS011;29414;44.798;20.366;2022-12-29T16:07:53;21.77;;;13.82;;
43793;SDS011;29414;44.798;20.366;2022-12-29T16:11:54;16.40;;;12.37;;
43793;SDS011;29414;44.798;20.366;2022-12-29T16:16:02;15.48;;;11.75;;
43793;SDS011;29414;44.798;20.366;2022-12-29T16:24:14;13.53;;;10.87;;
43793;SDS011;29414;44.798;20.366;2022-12-29T16:28:22;14.23;;;10.97;;
43793;SDS011;29414;44.798;20.366;2022-12-29T16:32:30;18.10;;;10.75;;
43793;SDS011;29414;44.798;20.366;2022-12-29T16:36:34;20.07;;;9.97;;
43793;SDS011;29414;44.798;20.366;2022-12-29T16:40:58;36.10;;;12.27;;
43793;SDS011;29414;44.798;20.366;2022-12-29T16:45:07;15.50;;;10.93;;
43793;SDS011;29414;44.798;20.366;2022-12-29T16:49:16;14.83;;;11.07;;
43793;SDS011;29414;44.798;20.366;2022-12-29T16:53:24;15.13;;;10.73;;
43793;SDS011;29414;44.798;20.366;2022-12-29T16:57:26;18.50;;;10.80;;
43793;SDS011;29414;44.798;20.366;2022-12-29T17:01:27;12.73;;;10.10;;
43793;SDS011;29414;44.798;20.366;2022-12-29T17:05:28;12.23;;;9.63;;
43793;SDS011;29414;44.798;20.366;2022-12-29T17:09:28;11.68;;;9.27;;
43793;SDS011;29414;44.798;20.366;2022-12-29T17:13:29;12.17;;;8.33;;
43793;SDS011;29414;44.798;20.366;2022-12-29T17:17:33;12.02;;;8.16;;
43793;SDS011;29414;44.798;20.366;2022-12-29T17:21:34;13.00;;;8.23;;
43793;SDS011;29414;44.798;20.366;2022-12-29T17:25:36;9.37;;;7.47;;
43793;SDS011;29414;44.798;20.366;2022-12-29T17:29:37;10.77;;;7.00;;
43793;SDS011;29414;44.798;20.366;2022-12-29T17:33:38;13.40;;;7.57;;
43793;SDS011;29414;44.798;20.366;2022-12-29T17:37:41;8.67;;;6.20;;
43793;SDS011;29414;44.798;20.366;2022-12-29T17:41:41;12.37;;;6.53;;
43793;SDS011;29414;44.798;20.366;2022-12-29T17:45:42;11.90;;;8.32;;
43793;SDS011;29414;44.798;20.366;2022-12-29T17:49:43;10.73;;;8.37;;
43793;SDS011;29414;44.798;20.366;2022-12-29T17:53:46;12.47;;;8.37;;
43793;SDS011;29414;44.798;20.366;2022-12-29T17:57:46;12.10;;;8.70;;
43793;SDS011;29414;44.798;20.366;2022-12-29T18:01:47;12.70;;;8.67;;
43793;SDS011;29414;44.798;20.366;2022-12-29T18:05:47;14.33;;;10.17;;
43793;SDS011;29414;44.798;20.366;2022-12-29T18:09:49;14.23;;;9.47;;
43793;SDS011;29414;44.798;20.366;2022-12-29T18:13:49;14.97;;;10.50;;
43793;SDS011;29414;44.798;20.366;2022-12-29T18:17:53;12.73;;;9.83;;
43793;SDS011;29414;44.798;20.366;2022-12-29T18:21:57;15.03;;;11.77;;
43793;SDS011;29414;44.798;20.366;2022-12-29T18:26:01;21.37;;;15.17;;
43793;SDS011;29414;44.798;20.366;2022-12-29T18:30:02;27.60;;;18.67;;
43793;SDS011;29414;44.798;20.366;2022-12-29T18:34:06;22.63;;;16.57;;
43793;SDS011;29414;44.798;20.366;2022-12-29T18:38:09;33.43;;;22.97;;
43793;SDS011;29414;44.798;20.366;2022-12-29T18:42:09;16.63;;;9.73;;
43793;SDS011;29414;44.798;20.366;2022-12-29T18:46:12;12.53;;;9.57;;
43793;SDS011;29414;44.798;20.366;2022-12-29T18:50:12;10.30;;;8.60;;
43793;SDS011;29414;44.798;20.366;2022-12-29T18:54:17;9.77;;;8.07;;
43793;SDS011;29414;44.798;20.366;2022-12-29T18:58:21;12.33;;;9.10;;
43793;SDS011;29414;44.798;20.366;2022-12-29T19:02:22;13.20;;;8.10;;
43793;SDS011;29414;44.798;20.366;2022-12-29T19:06:24;12.80;;;8.63;;
43793;SDS011;29414;44.798;20.366;2022-12-29T19:10:24;14.66;;;9.06;;
43793;SDS011;29414;44.798;20.366;2022-12-29T19:14:25;17.64;;;11.02;;
43793;SDS011;29414;44.798;20.366;2022-12-29T19:18:25;14.80;;;10.02;;
43793;SDS011;29414;44.798;20.366;2022-12-29T19:22:26;26.23;;;18.87;;
43793;SDS011;29414;44.798;20.366;2022-12-29T19:26:30;22.33;;;16.27;;
43793;SDS011;29414;44.798;20.366;2022-12-29T19:30:31;21.77;;;16.00;;
43793;SDS011;29414;44.798;20.366;2022-12-29T19:34:32;24.20;;;16.50;;
43793;SDS011;29414;44.798;20.366;2022-12-29T19:38:32;22.22;;;16.10;;
43793;SDS011;29414;44.798;20.366;2022-12-29T19:42:32;23.20;;;18.50;;
43793;SDS011;29414;44.798;20.366;2022-12-29T19:46:35;20.00;;;14.93;;
43793;SDS011;29414;44.798;20.366;2022-12-29T19:50:35;19.67;;;13.48;;
43793;SDS011;29414;44.798;20.366;2022-12-29T19:54:35;19.33;;;13.75;;
43793;SDS011;29414;44.798;20.366;2022-12-29T19:58:36;19.60;;;12.55;;
43793;SDS011;29414;44.798;20.366;2022-12-29T20:02:36;20.03;;;14.33;;
43793;SDS011;29414;44.798;20.366;2022-12-29T20:06:37;21.33;;;14.40;;
43793;SDS011;29414;44.798;20.366;2022-12-29T20:10:37;26.65;;;19.15;;
43793;SDS011;29414;44.798;20.366;2022-12-29T20:14:38;24.53;;;18.67;;
43793;SDS011;29414;44.798;20.366;2022-12-29T20:18:38;25.17;;;18.90;;
43793;SDS011;29414;44.798;20.366;2022-12-29T20:22:39;21.65;;;16.20;;
43793;SDS011;29414;44.798;20.366;2022-12-29T20:26:40;25.90;;;16.27;;
43793;SDS011;29414;44.798;20.366;2022-12-29T20:30:41;22.23;;;16.47;;
43793;SDS011;29414;44.798;20.366;2022-12-29T20:34:42;21.73;;;16.67;;
43793;SDS011;29414;44.798;20.366;2022-12-29T20:38:42;41.77;;;34.37;;
43793;SDS011;29414;44.798;20.366;2022-12-29T20:42:43;24.80;;;17.93;;
43793;SDS011;29414;44.798;20.366;2022-12-29T20:46:43;23.53;;;18.17;;
43793;SDS011;29414;44.798;20.366;2022-12-29T20:50:44;25.20;;;20.27;;
43793;SDS011;29414;44.798;20.366;2022-12-29T20:54:44;27.67;;;19.85;;
43793;SDS011;29414;44.798;20.366;2022-12-29T20:58:44;30.78;;;23.88;;
43793;SDS011;29414;44.798;20.366;2022-12-29T21:02:45;26.03;;;20.07;;
43793;SDS011;29414;44.798;20.366;2022-12-29T21:06:47;26.30;;;19.67;;
43793;SDS011;29414;44.798;20.366;2022-12-29T21:10:47;23.27;;;16.23;;
43793;SDS011;29414;44.798;20.366;2022-12-29T21:14:47;22.27;;;16.50;;
43793;SDS011;29414;44.798;20.366;2022-12-29T21:18:48;19.40;;;11.98;;
43793;SDS011;29414;44.798;20.366;2022-12-29T21:22:48;18.00;;;12.47;;
43793;SDS011;29414;44.798;20.366;2022-12-29T21:26:48;19.37;;;12.37;;
43793;SDS011;29414;44.798;20.366;2022-12-29T21:30:49;18.67;;;13.03;;
43793;SDS011;29414;44.798;20.366;2022-12-29T21:34:49;18.97;;;12.60;;
43793;SDS011;29414;44.798;20.366;2022-12-29T21:38:50;27.43;;;18.20;;
43793;SDS011;29414;44.798;20.366;2022-12-29T21:42:50;31.70;;;20.27;;
43793;SDS011;29414;44.798;20.366;2022-12-29T21:46:50;29.03;;;18.70;;
43793;SDS011;29414;44.798;20.366;2022-12-29T21:50:52;25.38;;;17.24;;
43793;SDS011;29414;44.798;20.366;2022-12-29T21:55:10;26.77;;;18.27;;
43793;SDS011;29414;44.798;20.366;2022-12-29T21:59:11;21.80;;;13.03;;
43793;SDS011;29414;44.798;20.366;2022-12-29T22:03:30;20.80;;;13.23;;
43793;SDS011;29414;44.798;20.366;2022-12-29T22:07:49;20.77;;;13.73;;
43793;SDS011;29414;44.798;20.366;2022-12-29T22:12:08;19.37;;;12.30;;
43793;SDS011;29414;44.798;20.366;2022-12-29T22:16:27;16.43;;;12.10;;
43793;SDS011;29414;44.798;20.366;2022-12-29T22:20:29;17.40;;;11.67;;
43793;SDS011;29414;44.798;20.366;2022-12-29T22:24:30;16.73;;;10.60;;
43793;SDS011;29414;44.798;20.366;2022-12-29T22:28:30;15.27;;;10.97;;
43793;SDS011;29414;44.798;20.366;2022-12-29T22:32:31;17.70;;;11.23;;
43793;SDS011;29414;44.798;20.366;2022-12-29T22:36:31;14.67;;;11.33;;
43793;SDS011;29414;44.798;20.366;2022-12-29T22:40:32;17.83;;;11.47;;
43793;SDS011;29414;44.798;20.366;2022-12-29T22:44:32;13.20;;;10.15;;
43793;SDS011;29414;44.798;20.366;2022-12-29T22:48:33;16.90;;;10.80;;
43793;SDS011;29414;44.798;20.366;2022-12-29T22:52:33;15.30;;;10.57;;
43793;SDS011;29414;44.798;20.366;2022-12-29T22:56:34;15.43;;;11.40;;
43793;SDS011;29414;44.798;20.366;2022-12-29T23:00:40;17.80;;;12.40;;
43793;SDS011;29414;44.798;20.366;2022-12-29T23:04:41;17.73;;;11.37;;
43793;SDS011;29414;44.798;20.366;2022-12-29T23:08:41;16.10;;;11.07;;
43793;SDS011;29414;44.798;20.366;2022-12-29T23:12:42;20.53;;;11.40;;
43793;SDS011;29414;44.798;20.366;2022-12-29T23:16:42;14.52;;;9.82;;
43793;SDS011;29414;44.798;20.366;2022-12-29T23:20:43;16.53;;;9.93;;
43793;SDS011;29414;44.798;20.366;2022-12-29T23:24:43;14.83;;;10.50;;
43793;SDS011;29414;44.798;20.366;2022-12-29T23:28:44;18.34;;;12.94;;
43793;SDS011;29414;44.798;20.366;2022-12-29T23:32:44;19.30;;;10.73;;
43793;SDS011;29414;44.798;20.366;2022-12-29T23:36:44;15.75;;;9.18;;
43793;SDS011;29414;44.798;20.366;2022-12-29T23:40:45;21.23;;;10.87;;
43793;SDS011;29414;44.798;20.366;2022-12-29T23:44:45;12.73;;;10.02;;
43793;SDS011;29414;44.798;20.366;2022-12-29T23:48:46;19.17;;;10.95;;
43793;SDS011;29414;44.798;20.366;2022-12-29T23:52:46;14.73;;;10.17;;
43793;SDS011;29414;44.798;20.366;2022-12-29T23:56:46;14.43;;;9.88;;
